createdAt,value
2018-04-12T00:00:12.849Z,14.40
2018-04-12T00:02:39.825Z,14.40
2018-04-12T00:05:06.059Z,14.30
2018-04-12T00:07:32.265Z,14.30
2018-04-12T00:09:58.524Z,14.30
2018-04-12T00:12:24.756Z,14.40
2018-04-12T00:14:50.949Z,14.40
2018-04-12T00:17:17.171Z,14.40
2018-04-12T00:19:44.117Z,14.50
2018-04-12T00:22:11.113Z,14.50
2018-04-12T00:24:37.373Z,14.40
2018-04-12T00:27:04.357Z,14.40
2018-04-12T00:29:30.632Z,14.40
2018-04-12T00:31:56.909Z,14.30
2018-04-12T00:34:23.146Z,14.20
2018-04-12T00:36:49.409Z,14.10
2018-04-12T00:39:15.681Z,14.00
2018-04-12T00:41:41.916Z,14.00
2018-04-12T00:44:08.132Z,14.00
2018-04-12T00:46:34.389Z,14.00
2018-04-12T00:49:00.564Z,14.10
2018-04-12T00:51:26.763Z,14.00
2018-04-12T00:54:05.061Z,14.00
2018-04-12T00:56:31.328Z,14.00
2018-04-12T00:58:57.557Z,14.00
2018-04-12T01:01:23.765Z,14.00
2018-04-12T01:03:50.002Z,14.00
2018-04-12T01:06:16.290Z,13.90
2018-04-12T01:08:42.556Z,13.90
2018-04-12T01:11:08.755Z,14.00
2018-04-12T01:13:35.005Z,13.90
2018-04-12T01:16:01.271Z,13.90
2018-04-12T01:18:28.279Z,13.80
2018-04-12T01:20:54.522Z,13.80
2018-04-12T01:23:20.751Z,13.80
2018-04-12T01:25:47.035Z,13.80
2018-04-12T01:28:13.250Z,13.80
2018-04-12T01:30:39.532Z,13.70
2018-04-12T01:33:15.869Z,13.70
2018-04-12T01:35:42.239Z,13.70
2018-04-12T01:38:08.505Z,13.70
2018-04-12T01:40:34.802Z,13.70
2018-04-12T01:43:01.027Z,13.60
2018-04-12T01:45:27.282Z,13.60
2018-04-12T01:47:53.579Z,13.50
2018-04-12T01:50:19.870Z,13.50
2018-04-12T01:52:46.119Z,13.40
2018-04-12T01:55:12.459Z,13.40
2018-04-12T01:57:38.734Z,13.40
2018-04-12T02:00:04.997Z,13.40
2018-04-12T02:02:31.313Z,13.30
2018-04-12T02:04:57.585Z,13.30
2018-04-12T02:07:23.886Z,13.30
2018-04-12T02:09:50.175Z,13.30
2018-04-12T02:12:17.199Z,13.20
2018-04-12T02:14:43.401Z,13.20
2018-04-12T02:17:09.678Z,13.20
2018-04-12T02:19:35.955Z,13.20
2018-04-12T02:22:02.254Z,13.20
2018-04-12T02:24:28.511Z,13.10
2018-04-12T02:26:54.760Z,13.20
2018-04-12T02:29:21.038Z,13.10
2018-04-12T02:31:47.254Z,13.00
2018-04-12T02:34:13.501Z,13.00
2018-04-12T02:36:39.761Z,13.00
2018-04-12T02:39:06.024Z,13.00
2018-04-12T02:41:33.038Z,12.90
2018-04-12T02:43:59.326Z,12.90
2018-04-12T02:46:25.550Z,13.00
2018-04-12T02:48:51.765Z,12.90
2018-04-12T02:51:18.116Z,12.80
2018-04-12T02:53:44.367Z,12.80
2018-04-12T02:56:10.598Z,12.80
2018-04-12T02:58:36.911Z,12.80
2018-04-12T03:01:03.202Z,12.70
2018-04-12T03:03:29.566Z,12.70
2018-04-12T03:05:55.839Z,12.60
2018-04-12T03:08:22.074Z,12.50
2018-04-12T03:10:48.326Z,12.40
2018-04-12T03:13:15.374Z,12.40
2018-04-12T03:15:42.386Z,12.30
2018-04-12T03:18:08.666Z,12.30
2018-04-12T03:20:34.958Z,12.30
2018-04-12T03:23:01.948Z,12.20
2018-04-12T03:25:28.234Z,12.20
2018-04-12T03:27:54.505Z,12.10
2018-04-12T03:30:20.782Z,12.10
2018-04-12T03:32:47.130Z,12.00
2018-04-12T03:35:13.689Z,12.10
2018-04-12T03:37:40.122Z,12.10
2018-04-12T03:40:06.619Z,11.90
2018-04-12T03:42:33.086Z,11.90
2018-04-12T03:44:59.636Z,11.90
2018-04-12T03:47:26.175Z,11.80
2018-04-12T03:49:52.674Z,11.80
2018-04-12T03:52:19.026Z,11.80
2018-04-12T03:54:45.440Z,11.80
2018-04-12T03:57:11.976Z,11.80
2018-04-12T03:59:38.468Z,11.80
2018-04-12T04:02:04.870Z,11.80
2018-04-12T04:04:31.286Z,11.90
2018-04-12T04:06:57.903Z,11.80
2018-04-12T04:09:24.369Z,11.70
2018-04-12T04:11:50.832Z,11.70
2018-04-12T04:14:29.490Z,11.80
2018-04-12T04:17:07.987Z,11.80
2018-04-12T04:19:46.612Z,11.80
2018-04-12T04:22:12.935Z,11.80
2018-04-12T04:24:39.169Z,11.70
2018-04-12T04:27:05.449Z,11.70
2018-04-12T04:29:31.786Z,11.80
2018-04-12T04:31:58.030Z,11.80
2018-04-12T04:34:24.294Z,11.80
2018-04-12T04:36:51.377Z,11.70
2018-04-12T04:39:17.688Z,11.70
2018-04-12T04:41:44.723Z,11.70
2018-04-12T04:44:11.780Z,11.70
2018-04-12T04:46:38.742Z,11.60
2018-04-12T04:49:05.040Z,11.60
2018-04-12T04:51:31.331Z,11.60
2018-04-12T04:53:57.594Z,11.70
2018-04-12T04:56:23.874Z,11.70
2018-04-12T04:58:50.150Z,11.70
2018-04-12T05:01:16.528Z,11.70
2018-04-12T05:03:43.540Z,11.50
2018-04-12T05:06:10.583Z,11.50
2018-04-12T05:08:36.880Z,11.40
2018-04-12T05:11:03.114Z,11.50
2018-04-12T05:13:31.446Z,11.40
2018-04-12T05:15:57.846Z,11.50
2018-04-12T05:18:24.113Z,11.40
2018-04-12T05:20:50.398Z,11.40
2018-04-12T05:23:16.722Z,11.40
2018-04-12T05:25:43.057Z,11.40
2018-04-12T05:28:09.345Z,11.40
2018-04-12T05:30:35.602Z,11.40
2018-04-12T05:33:01.918Z,11.30
2018-04-12T05:35:28.254Z,11.20
2018-04-12T05:37:54.493Z,11.00
2018-04-12T05:40:20.770Z,11.00
2018-04-12T05:42:47.027Z,11.10
2018-04-12T05:45:13.267Z,11.10
2018-04-12T05:47:39.525Z,11.10
2018-04-12T05:50:05.813Z,11.20
2018-04-12T05:52:32.123Z,11.30
2018-04-12T05:54:58.427Z,11.40
2018-04-12T05:57:25.434Z,11.50
2018-04-12T05:59:51.692Z,11.40
2018-04-12T06:02:18.745Z,11.60
2018-04-12T06:04:45.781Z,11.70
2018-04-12T06:07:12.065Z,11.60
2018-04-12T06:09:38.362Z,11.80
2018-04-12T06:12:04.677Z,11.90
2018-04-12T06:14:30.914Z,11.90
2018-04-12T06:16:57.886Z,12.00
2018-04-12T06:19:24.177Z,11.90
2018-04-12T06:21:50.454Z,12.00
2018-04-12T06:24:16.797Z,11.90
2018-04-12T06:26:43.073Z,12.00
2018-04-12T06:29:10.047Z,12.00
2018-04-12T06:31:36.271Z,12.00
2018-04-12T06:34:02.594Z,12.00
2018-04-12T06:36:28.880Z,11.90
2018-04-12T06:38:55.169Z,12.00
2018-04-12T06:41:21.501Z,12.00
2018-04-12T06:43:47.757Z,12.00
2018-04-12T06:46:14.005Z,12.00
2018-04-12T06:48:40.271Z,11.90
2018-04-12T06:51:06.512Z,11.80
2018-04-12T06:53:32.809Z,11.80
2018-04-12T06:55:59.804Z,11.70
2018-04-12T06:58:26.108Z,11.70
2018-04-12T07:00:52.436Z,11.70
2018-04-12T07:03:18.684Z,11.80
2018-04-12T07:05:45.000Z,11.70
2018-04-12T07:08:11.279Z,11.70
2018-04-12T07:10:37.570Z,11.80
2018-04-12T07:13:03.877Z,11.80
2018-04-12T07:15:30.158Z,11.90
2018-04-12T07:17:56.483Z,11.90
2018-04-12T07:20:22.717Z,11.90
2018-04-12T07:22:48.980Z,11.90
2018-04-12T07:25:16.008Z,11.90
2018-04-12T07:27:42.296Z,11.80
2018-04-12T07:30:08.562Z,11.90
2018-04-12T07:32:34.841Z,11.90
2018-04-12T07:35:01.148Z,12.00
2018-04-12T07:37:27.386Z,12.00
2018-04-12T07:39:53.679Z,12.10
2018-04-12T07:42:19.960Z,12.10
2018-04-12T07:44:46.224Z,12.10
2018-04-12T07:47:12.525Z,12.10
2018-04-12T07:49:38.836Z,12.20
2018-04-12T07:52:05.117Z,12.20
2018-04-12T07:54:31.411Z,12.20
2018-04-12T07:56:57.670Z,12.20
2018-04-12T07:59:23.970Z,12.30
2018-04-12T08:01:50.308Z,12.30
2018-04-12T08:04:16.630Z,12.30
2018-04-12T08:06:42.930Z,12.40
2018-04-12T08:09:09.248Z,12.40
2018-04-12T08:11:35.532Z,12.40
2018-04-12T08:14:01.839Z,12.50
2018-04-12T08:16:28.148Z,12.50
2018-04-12T08:18:55.177Z,12.70
2018-04-12T08:21:22.238Z,12.70
2018-04-12T08:23:49.242Z,12.70
2018-04-12T08:26:15.542Z,12.70
2018-04-12T08:28:41.864Z,12.80
2018-04-12T08:31:08.114Z,12.90
2018-04-12T08:33:34.358Z,12.90
2018-04-12T08:36:00.597Z,13.10
2018-04-12T08:38:26.888Z,13.30
2018-04-12T08:40:53.212Z,13.40
2018-04-12T08:43:19.447Z,13.50
2018-04-12T08:45:45.762Z,13.60
2018-04-12T08:48:12.041Z,13.70
2018-04-12T08:50:38.319Z,13.70
2018-04-12T08:53:04.619Z,13.80
2018-04-12T08:55:30.902Z,13.80
2018-04-12T08:57:57.199Z,13.90
2018-04-12T09:00:24.247Z,14.00
2018-04-12T09:02:51.271Z,14.00
2018-04-12T09:05:17.590Z,13.90
2018-04-12T09:07:43.905Z,14.00
2018-04-12T09:10:10.175Z,14.00
2018-04-12T09:12:37.144Z,14.20
2018-04-12T09:15:03.406Z,14.10
2018-04-12T09:17:29.675Z,14.20
2018-04-12T09:19:55.874Z,14.20
2018-04-12T09:22:22.163Z,14.20
2018-04-12T09:24:48.447Z,14.30
2018-04-12T09:27:14.760Z,14.30
2018-04-12T09:29:41.004Z,14.30
2018-04-12T09:32:07.263Z,14.30
2018-04-12T09:34:33.531Z,14.30
2018-04-12T09:36:59.760Z,14.30
2018-04-12T09:39:26.032Z,14.30
2018-04-12T09:41:53.107Z,14.40
2018-04-12T09:44:19.352Z,14.30
2018-04-12T09:46:45.627Z,14.30
2018-04-12T09:49:11.845Z,14.40
2018-04-12T09:51:38.160Z,14.40
2018-04-12T09:54:04.579Z,14.40
2018-04-12T09:56:31.039Z,14.50
2018-04-12T09:58:58.225Z,14.50
2018-04-12T10:01:24.767Z,14.50
2018-04-12T10:03:51.088Z,14.60
2018-04-12T10:06:22.213Z,14.60
2018-04-12T10:08:54.684Z,14.60
2018-04-12T10:11:20.980Z,14.60
2018-04-12T10:13:47.240Z,14.70
2018-04-12T10:16:13.520Z,14.70
2018-04-12T10:18:39.770Z,14.80
2018-04-12T10:21:06.000Z,14.80
2018-04-12T10:23:32.312Z,14.90
2018-04-12T10:25:58.560Z,14.80
2018-04-12T10:28:24.831Z,14.80
2018-04-12T10:30:51.851Z,14.90
2018-04-12T10:33:18.127Z,14.90
2018-04-12T10:35:44.375Z,15.00
2018-04-12T10:38:10.651Z,15.00
2018-04-12T10:40:36.955Z,15.00
2018-04-12T10:43:03.212Z,15.00
2018-04-12T10:45:30.247Z,15.20
2018-04-12T10:47:56.528Z,15.20
2018-04-12T10:50:22.812Z,15.30
2018-04-12T10:52:49.116Z,15.40
2018-04-12T10:55:15.408Z,15.50
2018-04-12T10:57:41.701Z,15.80
2018-04-12T11:00:07.965Z,16.10
2018-04-12T11:02:34.275Z,16.20
2018-04-12T11:05:01.318Z,16.30
2018-04-12T11:07:27.619Z,16.30
2018-04-12T11:09:53.877Z,16.40
2018-04-12T11:12:21.011Z,16.50
2018-04-12T11:14:47.975Z,16.50
2018-04-12T11:17:14.271Z,16.50
2018-04-12T11:19:40.585Z,16.50
2018-04-12T11:22:06.874Z,16.60
2018-04-12T11:24:33.951Z,16.60
2018-04-12T11:27:00.201Z,16.60
2018-04-12T11:29:26.445Z,16.70
2018-04-12T11:31:52.757Z,16.80
2018-04-12T11:34:19.087Z,16.80
2018-04-12T11:36:45.321Z,17.00
2018-04-12T11:39:12.364Z,17.10
2018-04-12T11:41:38.605Z,17.10
2018-04-12T11:44:04.856Z,17.20
2018-04-12T11:46:31.908Z,17.50
2018-04-12T11:48:58.948Z,17.50
2018-04-12T11:51:25.166Z,17.50
2018-04-12T11:53:51.454Z,17.60
2018-04-12T11:56:17.742Z,17.70
2018-04-12T11:58:44.737Z,17.70
2018-04-12T12:01:10.958Z,17.70
2018-04-12T12:03:37.155Z,17.80
2018-04-12T12:06:04.209Z,17.90
2018-04-12T12:08:30.473Z,17.90
2018-04-12T12:10:56.937Z,18.00
2018-04-12T12:13:23.172Z,18.00
2018-04-12T12:15:50.177Z,18.20
2018-04-12T12:18:16.439Z,18.10
2018-04-12T12:20:42.728Z,18.20
2018-04-12T12:23:08.995Z,18.30
2018-04-12T12:25:35.298Z,18.30
2018-04-12T12:28:01.548Z,18.40
2018-04-12T12:30:27.802Z,18.50
2018-04-12T12:32:54.795Z,18.60
2018-04-12T12:35:21.068Z,18.50
2018-04-12T12:37:48.067Z,18.70
2018-04-12T12:40:14.310Z,18.70
2018-04-12T12:42:40.610Z,18.70
2018-04-12T12:45:06.837Z,18.80
2018-04-12T12:47:33.145Z,18.80
2018-04-12T12:50:00.169Z,19.10
2018-04-12T12:52:26.401Z,19.00
2018-04-12T12:54:53.446Z,19.20
2018-04-12T12:57:20.480Z,19.40
2018-04-12T12:59:46.814Z,19.30
2018-04-12T13:02:13.917Z,19.50
2018-04-12T13:04:40.291Z,19.40
2018-04-12T13:07:07.398Z,19.70
2018-04-12T13:09:33.715Z,19.60
2018-04-12T13:12:00.012Z,19.80
2018-04-12T13:14:26.350Z,19.90
2018-04-12T13:16:53.359Z,20.10
2018-04-12T13:19:19.643Z,20.00
2018-04-12T13:21:45.883Z,20.10
2018-04-12T13:24:12.182Z,20.10
2018-04-12T13:26:38.563Z,20.00
2018-04-12T13:29:04.899Z,19.90
2018-04-12T13:31:31.200Z,19.80
2018-04-12T13:33:57.521Z,19.80
2018-04-12T13:36:23.759Z,19.70
2018-04-12T13:38:50.093Z,19.80
2018-04-12T13:41:16.412Z,19.80
2018-04-12T13:43:42.706Z,20.00
2018-04-12T13:46:08.999Z,19.90
2018-04-12T13:48:35.297Z,19.80
2018-04-12T13:51:02.334Z,19.70
2018-04-12T13:53:29.373Z,19.80
2018-04-12T13:55:56.414Z,19.90
2018-04-12T13:58:23.426Z,19.90
2018-04-12T14:00:49.750Z,19.80
2018-04-12T14:03:16.018Z,19.80
2018-04-12T14:05:42.279Z,19.80
2018-04-12T14:08:09.557Z,19.80
2018-04-12T14:10:35.784Z,19.80
2018-04-12T14:13:02.039Z,19.80
2018-04-12T14:15:28.317Z,19.80
2018-04-12T14:17:54.620Z,19.80
2018-04-12T14:20:21.244Z,20.00
2018-04-12T14:22:47.617Z,20.00
2018-04-12T14:25:13.916Z,20.10
2018-04-12T14:27:41.012Z,20.30
2018-04-12T14:30:07.288Z,20.30
2018-04-12T14:32:33.601Z,20.30
2018-04-12T14:35:00.745Z,20.30
2018-04-12T14:37:27.044Z,20.20
2018-04-12T14:39:53.300Z,20.20
2018-04-12T14:42:19.557Z,20.10
2018-04-12T14:44:45.899Z,20.00
2018-04-12T14:47:12.928Z,19.90
2018-04-12T14:49:39.181Z,19.90
2018-04-12T14:52:06.149Z,19.80
2018-04-12T14:54:32.493Z,19.70
2018-04-12T14:56:58.726Z,19.80
2018-04-12T14:59:24.968Z,19.80
2018-04-12T15:01:51.293Z,19.70
2018-04-12T15:04:17.645Z,19.70
2018-04-12T15:06:43.976Z,19.70
2018-04-12T15:09:11.074Z,19.70
2018-04-12T15:11:38.567Z,19.70
2018-04-12T15:14:05.236Z,19.70
2018-04-12T15:16:31.496Z,19.70
2018-04-12T15:18:57.771Z,19.70
2018-04-12T15:21:24.115Z,19.70
2018-04-12T15:23:50.328Z,19.70
2018-04-12T15:26:16.592Z,19.70
2018-04-12T15:28:43.633Z,19.70
2018-04-12T15:31:10.605Z,19.70
2018-04-12T15:33:36.903Z,19.70
2018-04-12T15:36:03.971Z,19.80
2018-04-12T15:38:30.265Z,19.80
2018-04-12T15:40:56.707Z,19.80
2018-04-12T15:43:23.126Z,19.90
2018-04-12T15:45:49.627Z,19.90
2018-04-12T15:48:16.097Z,19.90
2018-04-12T15:50:42.623Z,19.90
2018-04-12T15:53:09.131Z,19.90
2018-04-12T15:55:35.698Z,20.00
2018-04-12T15:58:02.203Z,20.00
2018-04-12T16:00:28.719Z,20.10
2018-04-12T16:02:55.187Z,20.10
2018-04-12T16:05:22.395Z,20.00
2018-04-12T16:07:48.912Z,20.00
2018-04-12T16:10:15.388Z,20.00
2018-04-12T16:12:41.955Z,20.00
2018-04-12T16:15:08.459Z,20.00
2018-04-12T16:17:35.096Z,20.00
2018-04-12T16:20:01.561Z,20.00
2018-04-12T16:22:28.624Z,20.00
2018-04-12T16:24:54.858Z,19.90
2018-04-12T16:27:21.054Z,20.00
2018-04-12T16:29:47.324Z,19.90
2018-04-12T16:32:14.323Z,19.90
2018-04-12T16:34:40.619Z,19.80
2018-04-12T16:37:06.948Z,19.90
2018-04-12T16:39:33.228Z,19.80
2018-04-12T16:41:59.537Z,19.80
2018-04-12T16:44:25.837Z,19.70
2018-04-12T16:46:52.209Z,19.70
2018-04-12T16:49:18.482Z,19.60
2018-04-12T16:51:45.539Z,19.50
2018-04-12T16:54:11.763Z,19.50
2018-04-12T16:56:38.750Z,19.40
2018-04-12T16:59:05.056Z,19.30
2018-04-12T17:01:31.268Z,19.30
2018-04-12T17:03:57.507Z,19.20
2018-04-12T17:06:23.853Z,19.10
2018-04-12T17:08:50.072Z,19.10
2018-04-12T17:11:16.365Z,19.00
2018-04-12T17:13:42.653Z,18.90
2018-04-12T17:16:09.005Z,18.80
2018-04-12T17:18:35.283Z,18.70
2018-04-12T17:21:01.597Z,18.60
2018-04-12T17:23:27.857Z,18.60
2018-04-12T17:25:54.097Z,18.50
2018-04-12T17:28:20.459Z,18.50
2018-04-12T17:30:46.730Z,18.40
2018-04-12T17:33:12.986Z,18.40
2018-04-12T17:35:39.264Z,18.40
2018-04-12T17:38:06.301Z,18.20
2018-04-12T17:40:33.328Z,18.10
2018-04-12T17:42:59.666Z,18.10
2018-04-12T17:45:25.946Z,18.10
2018-04-12T17:47:52.233Z,18.10
2018-04-12T17:50:19.274Z,18.10
2018-04-12T17:52:45.528Z,18.00
2018-04-12T17:55:12.517Z,17.90
2018-04-12T17:57:38.779Z,17.90
2018-04-12T18:00:05.303Z,17.90
2018-04-12T18:02:32.409Z,17.90
2018-04-12T18:04:58.638Z,17.90
2018-04-12T18:07:24.913Z,17.90
2018-04-12T18:09:51.181Z,17.90
2018-04-12T18:12:17.468Z,18.00
2018-04-12T18:14:43.717Z,18.00
2018-04-12T18:17:09.993Z,18.00
2018-04-12T18:19:36.257Z,18.00
2018-04-12T18:22:02.479Z,18.00
2018-04-12T18:24:28.749Z,18.10
2018-04-12T18:26:55.749Z,18.00
2018-04-12T18:29:22.030Z,17.90
2018-04-12T18:31:48.305Z,17.90
2018-04-12T18:34:14.652Z,18.00
2018-04-12T18:36:41.666Z,17.80
2018-04-12T18:39:07.916Z,17.80
2018-04-12T18:41:34.226Z,17.80
2018-04-12T18:44:00.526Z,17.70
2018-04-12T18:46:26.816Z,17.70
2018-04-12T18:48:53.126Z,17.60
2018-04-12T18:51:19.438Z,17.50
2018-04-12T18:53:45.768Z,17.50
2018-04-12T18:56:12.059Z,17.50
2018-04-12T18:58:39.090Z,17.40
2018-04-12T19:01:05.366Z,17.40
2018-04-12T19:03:31.625Z,17.40
2018-04-12T19:05:57.917Z,17.40
2018-04-12T19:08:24.181Z,17.40
2018-04-12T19:10:50.508Z,17.30
2018-04-12T19:13:16.846Z,17.20
2018-04-12T19:15:43.133Z,17.10
2018-04-12T19:18:09.392Z,17.10
2018-04-12T19:20:35.702Z,17.00
2018-04-12T19:23:01.969Z,16.90
2018-04-12T19:25:28.246Z,16.90
2018-04-12T19:27:54.550Z,16.80
2018-04-12T19:30:21.573Z,16.80
2018-04-12T19:32:47.818Z,16.70
2018-04-12T19:35:14.827Z,16.70
2018-04-12T19:37:41.115Z,16.70
2018-04-12T19:40:07.437Z,16.70
2018-04-12T19:42:33.702Z,16.60
2018-04-12T19:44:59.987Z,16.50
2018-04-12T19:47:26.265Z,16.30
2018-04-12T19:49:52.506Z,16.10
2018-04-12T19:52:18.826Z,16.10
2018-04-12T19:54:45.106Z,15.80
2018-04-12T19:57:12.118Z,15.50
2018-04-12T19:59:38.422Z,15.50
2018-04-12T20:02:04.737Z,15.60
2018-04-12T20:04:31.017Z,15.60
2018-04-12T20:06:57.377Z,15.70
2018-04-12T20:09:24.401Z,15.60
2018-04-12T20:11:50.657Z,15.60
2018-04-12T20:14:17.673Z,15.60
2018-04-12T20:16:43.920Z,15.60
2018-04-12T20:19:10.147Z,15.50
2018-04-12T20:21:36.405Z,15.40
2018-04-12T20:24:02.671Z,15.30
2018-04-12T20:26:28.937Z,15.00
2018-04-12T20:28:55.233Z,14.90
2018-04-12T20:31:21.501Z,14.80
2018-04-12T20:33:47.783Z,14.90
2018-04-12T20:36:15.194Z,15.00
2018-04-12T20:38:41.406Z,14.80
2018-04-12T20:41:08.382Z,14.60
2018-04-12T20:43:34.648Z,14.60
2018-04-12T20:46:00.908Z,14.50
2018-04-12T20:48:27.869Z,14.60
2018-04-12T20:50:54.841Z,14.60
2018-04-12T20:53:21.089Z,14.60
2018-04-12T20:55:47.352Z,14.50
2018-04-12T20:58:14.414Z,14.30
2018-04-12T21:00:41.425Z,14.30
2018-04-12T21:03:07.689Z,14.30
2018-04-12T21:05:34.690Z,14.30
2018-04-12T21:08:00.956Z,14.20
2018-04-12T21:10:28.083Z,14.20
2018-04-12T21:12:54.333Z,14.10
2018-04-12T21:15:21.401Z,14.10
2018-04-12T21:17:47.668Z,14.00
2018-04-12T21:20:13.937Z,14.10
2018-04-12T21:22:40.931Z,14.10
2018-04-12T21:25:07.209Z,14.10
2018-04-12T21:27:34.241Z,14.10
2018-04-12T21:30:00.489Z,14.10
2018-04-12T21:32:26.741Z,14.20
2018-04-12T21:34:52.986Z,14.20
2018-04-12T21:37:19.301Z,14.20
2018-04-12T21:39:45.542Z,14.20
2018-04-12T21:42:11.798Z,14.20
2018-04-12T21:44:38.014Z,14.20
2018-04-12T21:47:04.229Z,14.20
2018-04-12T21:49:30.477Z,14.20
2018-04-12T21:51:56.742Z,14.20
2018-04-12T21:54:23.006Z,14.10
2018-04-12T21:56:49.288Z,14.10
2018-04-12T21:59:15.550Z,14.20
2018-04-12T22:01:41.848Z,14.10
2018-04-12T22:04:08.152Z,14.10
2018-04-12T22:06:34.463Z,14.10
2018-04-12T22:09:00.703Z,14.10
2018-04-12T22:11:27.014Z,14.10
2018-04-12T22:13:53.349Z,14.00
2018-04-12T22:16:19.681Z,13.90
2018-04-12T22:18:45.961Z,13.80
2018-04-12T22:21:13.017Z,13.80
2018-04-12T22:23:40.068Z,13.70
2018-04-12T22:26:07.080Z,13.70
2018-04-12T22:28:33.376Z,13.70
2018-04-12T22:30:59.613Z,13.70
2018-04-12T22:33:25.843Z,13.60
2018-04-12T22:35:52.086Z,13.60
2018-04-12T22:38:18.363Z,13.40
2018-04-12T22:40:44.653Z,13.40
2018-04-12T22:43:11.738Z,13.30
2018-04-12T22:45:38.291Z,13.20
2018-04-12T22:48:04.594Z,13.20
2018-04-12T22:50:31.653Z,13.20
2018-04-12T22:52:57.941Z,13.20
2018-04-12T22:55:24.226Z,13.10
2018-04-12T22:57:51.237Z,13.00
2018-04-12T23:00:17.487Z,12.90
2018-04-12T23:02:43.792Z,12.90
2018-04-12T23:05:10.097Z,12.80
2018-04-12T23:07:36.370Z,12.80
2018-04-12T23:10:02.717Z,12.80
2018-04-12T23:12:29.057Z,12.70
2018-04-12T23:14:55.341Z,12.60
2018-04-12T23:17:21.643Z,12.70
2018-04-12T23:19:47.961Z,12.60
2018-04-12T23:22:14.207Z,12.70
2018-04-12T23:24:40.445Z,12.70
2018-04-12T23:27:06.722Z,12.70
2018-04-12T23:29:33.101Z,12.70
2018-04-12T23:31:59.454Z,12.70
2018-04-12T23:34:26.470Z,12.80
2018-04-12T23:36:52.742Z,12.70
2018-04-12T23:39:19.712Z,12.80
2018-04-12T23:41:45.973Z,12.80
2018-04-12T23:44:12.241Z,12.80
2018-04-12T23:46:39.338Z,12.80
2018-04-12T23:49:05.579Z,12.70
2018-04-12T23:51:31.861Z,12.70
2018-04-12T23:53:58.234Z,12.70
2018-04-12T23:56:24.470Z,12.60
2018-04-12T23:58:50.716Z,12.50
